createdAt,value
2017-02-08T00:00:04.230Z,1020.87
2017-02-08T00:01:13.179Z,1020.88
2017-02-08T00:02:22.128Z,1020.9
2017-02-08T00:03:31.077Z,1020.89
2017-02-08T00:04:40.241Z,1020.88
2017-02-08T00:05:49.273Z,1020.82
2017-02-08T00:06:58.240Z,1020.87
2017-02-08T00:08:07.268Z,1020.93
2017-02-08T00:09:16.283Z,1020.9
2017-02-08T00:10:25.787Z,1020.94
2017-02-08T00:11:35.000Z,1020.95
2017-02-08T00:12:43.948Z,1020.96
2017-02-08T00:13:52.892Z,1020.99
2017-02-08T00:15:01.924Z,1021.01
2017-02-08T00:16:10.879Z,1021
2017-02-08T00:17:19.826Z,1021.06
2017-02-08T00:18:28.796Z,1021.05
2017-02-08T00:19:38.148Z,1021.05
2017-02-08T00:20:47.096Z,1021
2017-02-08T00:21:56.047Z,1021.01
2017-02-08T00:23:05.015Z,1021.06
2017-02-08T00:24:13.965Z,1021.08
2017-02-08T00:25:22.929Z,1021.09
2017-02-08T00:26:32.298Z,1021.09
2017-02-08T00:27:41.244Z,1021.1
2017-02-08T00:28:50.609Z,1021.11
2017-02-08T00:29:59.560Z,1021.12
2017-02-08T00:31:08.924Z,1021.17
2017-02-08T00:32:17.875Z,1021.15
2017-02-08T00:33:26.908Z,1021.16
2017-02-08T00:34:35.853Z,1021.17
2017-02-08T00:35:45.653Z,1021.2
2017-02-08T00:37:01.685Z,1021.21
2017-02-08T00:38:15.119Z,1021.2
2017-02-08T00:39:26.501Z,1021.23
2017-02-08T00:40:38.213Z,1021.23
2017-02-08T00:41:50.279Z,1021.26
2017-02-08T00:43:03.327Z,1021.24
2017-02-08T00:44:15.476Z,1021.2
2017-02-08T00:45:30.975Z,1021.25
2017-02-08T00:46:39.925Z,1021.21
2017-02-08T00:47:53.993Z,1021.25
2017-02-08T00:49:05.987Z,1021.24
2017-02-08T00:50:21.940Z,1021.19
2017-02-08T00:51:34.701Z,1021.18
2017-02-08T00:52:44.436Z,1021.21
2017-02-08T00:53:57.999Z,1021.21
2017-02-08T00:55:07.527Z,1021.21
2017-02-08T00:56:16.806Z,1021.19
2017-02-08T00:57:25.752Z,1021.26
2017-02-08T00:58:34.702Z,1021.16
2017-02-08T00:59:45.226Z,1021.19
2017-02-08T01:00:56.307Z,1021.2
2017-02-08T01:02:05.277Z,1021.21
2017-02-08T01:03:16.182Z,1021.17
2017-02-08T01:04:27.785Z,1021.19
2017-02-08T01:05:38.992Z,1021.22
2017-02-08T01:06:48.438Z,1021.22
2017-02-08T01:07:57.799Z,1021.22
2017-02-08T01:09:06.755Z,1021.27
2017-02-08T01:10:16.268Z,1021.23
2017-02-08T01:11:25.305Z,1021.22
2017-02-08T01:12:35.179Z,1021.25
2017-02-08T01:13:44.126Z,1021.22
2017-02-08T01:14:53.741Z,1021.27
2017-02-08T01:16:02.779Z,1021.28
2017-02-08T01:17:12.373Z,1021.32
2017-02-08T01:18:21.318Z,1021.32
2017-02-08T01:19:30.958Z,1021.35
2017-02-08T01:20:39.934Z,1021.33
2017-02-08T01:21:49.665Z,1021.34
2017-02-08T01:22:58.613Z,1021.37
2017-02-08T01:24:08.297Z,1021.39
2017-02-08T01:25:17.249Z,1021.4
2017-02-08T01:26:26.470Z,1021.4
2017-02-08T01:27:35.414Z,1021.37
2017-02-08T01:28:45.335Z,1021.37
2017-02-08T01:29:54.335Z,1021.39
2017-02-08T01:31:03.848Z,1021.39
2017-02-08T01:32:12.795Z,1021.34
2017-02-08T01:33:22.478Z,1021.36
2017-02-08T01:34:31.428Z,1021.34
2017-02-08T01:35:41.119Z,1021.32
2017-02-08T01:36:50.355Z,1021.32
2017-02-08T01:37:59.821Z,1021.3
2017-02-08T01:39:10.059Z,1021.25
2017-02-08T01:40:19.004Z,1021.26
2017-02-08T01:41:29.378Z,1021.27
2017-02-08T01:42:38.652Z,1021.27
2017-02-08T01:43:49.359Z,1021.26
2017-02-08T01:45:00.721Z,1021.25
2017-02-08T01:46:11.374Z,1021.23
2017-02-08T01:47:23.616Z,1021.22
2017-02-08T01:48:34.287Z,1021.25
2017-02-08T01:49:45.383Z,1021.27
2017-02-08T01:50:56.403Z,1021.28
2017-02-08T01:52:07.535Z,1021.25
2017-02-08T01:53:16.480Z,1021.27
2017-02-08T01:54:25.838Z,1021.27
2017-02-08T01:55:34.794Z,1021.25
2017-02-08T01:56:43.743Z,1021.32
2017-02-08T01:57:52.689Z,1021.3
2017-02-08T01:59:01.634Z,1021.23
2017-02-08T02:00:10.577Z,1021.29
2017-02-08T02:01:19.523Z,1021.31
2017-02-08T02:02:28.473Z,1021.39
2017-02-08T02:03:37.426Z,1021.36
2017-02-08T02:04:46.374Z,1021.41
2017-02-08T02:05:55.316Z,1021.35
2017-02-08T02:07:04.260Z,1021.33
2017-02-08T02:08:13.208Z,1021.35
2017-02-08T02:09:22.243Z,1021.4
2017-02-08T02:10:31.193Z,1021.35
2017-02-08T02:11:40.178Z,1021.37
2017-02-08T02:12:49.127Z,1021.35
2017-02-08T02:13:58.075Z,1021.34
2017-02-08T02:15:07.025Z,1021.36
2017-02-08T02:16:15.975Z,1021.35
2017-02-08T02:17:24.925Z,1021.34
2017-02-08T02:18:33.868Z,1021.38
2017-02-08T02:19:42.812Z,1021.42
2017-02-08T02:20:51.755Z,1021.35
2017-02-08T02:22:00.700Z,1021.43
2017-02-08T02:23:09.646Z,1021.37
2017-02-08T02:24:18.601Z,1021.41
2017-02-08T02:25:27.550Z,1021.37
2017-02-08T02:26:36.499Z,1021.35
2017-02-08T02:27:45.449Z,1021.33
2017-02-08T02:28:54.486Z,1021.38
2017-02-08T02:30:03.436Z,1021.37
2017-02-08T02:31:12.383Z,1021.4
2017-02-08T02:32:21.743Z,1021.39
2017-02-08T02:33:30.688Z,1021.4
2017-02-08T02:34:39.640Z,1021.41
2017-02-08T02:35:48.584Z,1021.41
2017-02-08T02:36:57.534Z,1021.4
2017-02-08T02:38:06.484Z,1021.37
2017-02-08T02:39:15.428Z,1021.41
2017-02-08T02:40:24.469Z,1021.39
2017-02-08T02:41:33.421Z,1021.42
2017-02-08T02:42:42.862Z,1021.39
2017-02-08T02:43:51.807Z,1021.4
2017-02-08T02:45:00.762Z,1021.41
2017-02-08T02:46:09.707Z,1021.43
2017-02-08T02:47:19.058Z,1021.44
2017-02-08T02:48:28.004Z,1021.44
2017-02-08T02:49:36.952Z,1021.49
2017-02-08T02:50:46.310Z,1021.47
2017-02-08T02:51:55.257Z,1021.45
2017-02-08T02:53:04.202Z,1021.48
2017-02-08T02:54:13.149Z,1021.5
2017-02-08T02:55:22.587Z,1021.45
2017-02-08T02:56:31.535Z,1021.43
2017-02-08T02:57:40.887Z,1021.47
2017-02-08T02:58:49.835Z,1021.52
2017-02-08T02:59:58.872Z,1021.47
2017-02-08T03:01:07.913Z,1021.51
2017-02-08T03:02:16.893Z,1021.47
2017-02-08T03:03:25.839Z,1021.51
2017-02-08T03:04:34.785Z,1021.49
2017-02-08T03:05:43.729Z,1021.52
2017-02-08T03:06:52.678Z,1021.44
2017-02-08T03:08:01.803Z,1021.48
2017-02-08T03:09:10.747Z,1021.48
2017-02-08T03:10:19.695Z,1021.46
2017-02-08T03:11:28.647Z,1021.45
2017-02-08T03:12:37.597Z,1021.48
2017-02-08T03:13:46.545Z,1021.44
2017-02-08T03:14:55.580Z,1021.44
2017-02-08T03:16:04.525Z,1021.43
2017-02-08T03:17:13.475Z,1021.46
2017-02-08T03:18:22.419Z,1021.44
2017-02-08T03:19:31.365Z,1021.51
2017-02-08T03:20:40.312Z,1021.49
2017-02-08T03:21:49.257Z,1021.6
2017-02-08T03:22:58.643Z,1021.56
2017-02-08T03:24:07.999Z,1021.55
2017-02-08T03:25:16.947Z,1021.57
2017-02-08T03:26:25.984Z,1021.56
2017-02-08T03:27:34.934Z,1021.58
2017-02-08T03:28:43.970Z,1021.59
2017-02-08T03:29:52.920Z,1021.6
2017-02-08T03:31:01.865Z,1021.62
2017-02-08T03:32:10.905Z,1021.66
2017-02-08T03:33:19.852Z,1021.62
2017-02-08T03:34:28.800Z,1021.64
2017-02-08T03:35:38.156Z,1021.66
2017-02-08T03:36:47.117Z,1021.67
2017-02-08T03:37:56.063Z,1021.7
2017-02-08T03:39:05.011Z,1021.69
2017-02-08T03:40:14.451Z,1021.7
2017-02-08T03:41:23.800Z,1021.74
2017-02-08T03:42:32.751Z,1021.7
2017-02-08T03:43:41.701Z,1021.84
2017-02-08T03:44:50.651Z,1021.8
2017-02-08T03:45:59.595Z,1021.77
2017-02-08T03:47:08.541Z,1021.8
2017-02-08T03:48:17.489Z,1021.84
2017-02-08T03:49:26.436Z,1021.85
2017-02-08T03:50:35.384Z,1021.85
2017-02-08T03:51:44.334Z,1021.83
2017-02-08T03:52:53.370Z,1021.87
2017-02-08T03:54:02.317Z,1021.95
2017-02-08T03:55:11.263Z,1021.94
2017-02-08T03:56:20.207Z,1021.88
2017-02-08T03:57:29.247Z,1021.91
2017-02-08T03:58:38.192Z,1021.9
2017-02-08T03:59:47.139Z,1021.91
2017-02-08T04:00:56.176Z,1021.86
2017-02-08T04:02:05.213Z,1021.85
2017-02-08T04:03:14.901Z,1021.94
2017-02-08T04:04:23.844Z,1021.95
2017-02-08T04:05:32.878Z,1021.93
2017-02-08T04:06:41.825Z,1021.96
2017-02-08T04:07:50.774Z,1021.97
2017-02-08T04:08:59.766Z,1022
2017-02-08T04:10:08.715Z,1022.04
2017-02-08T04:11:17.663Z,1022.03
2017-02-08T04:12:26.611Z,1022.04
2017-02-08T04:13:35.597Z,1022.03
2017-02-08T04:14:44.542Z,1022.01
2017-02-08T04:15:53.491Z,1021.98
2017-02-08T04:17:02.439Z,1021.99
2017-02-08T04:18:11.791Z,1021.99
2017-02-08T04:19:20.738Z,1022.02
2017-02-08T04:20:29.689Z,1022.02
2017-02-08T04:21:38.718Z,1022.02
2017-02-08T04:22:47.667Z,1022.03
2017-02-08T04:23:56.615Z,1022.01
2017-02-08T04:25:05.647Z,1022.06
2017-02-08T04:26:14.993Z,1022.11
2017-02-08T04:27:23.942Z,1022.04
2017-02-08T04:28:33.063Z,1022.06
2017-02-08T04:29:42.016Z,1022.1
2017-02-08T04:30:50.965Z,1022.12
2017-02-08T04:31:59.922Z,1022.09
2017-02-08T04:33:08.867Z,1022.13
2017-02-08T04:34:17.817Z,1022.19
2017-02-08T04:35:26.762Z,1022.15
2017-02-08T04:36:35.711Z,1022.21
2017-02-08T04:37:44.656Z,1022.19
2017-02-08T04:38:53.600Z,1022.21
2017-02-08T04:40:02.597Z,1022.23
2017-02-08T04:41:11.545Z,1022.24
2017-02-08T04:42:20.489Z,1022.17
2017-02-08T04:43:29.845Z,1022.26
2017-02-08T04:44:38.796Z,1022.27
2017-02-08T04:45:47.745Z,1022.26
2017-02-08T04:46:56.690Z,1022.22
2017-02-08T04:48:05.639Z,1022.25
2017-02-08T04:49:14.584Z,1022.24
2017-02-08T04:50:23.941Z,1022.26
2017-02-08T04:51:32.888Z,1022.25
2017-02-08T04:52:41.833Z,1022.27
2017-02-08T04:53:50.776Z,1022.26
2017-02-08T04:54:59.731Z,1022.26
2017-02-08T04:56:08.678Z,1022.32
2017-02-08T04:57:18.030Z,1022.29
2017-02-08T04:58:26.979Z,1022.31
2017-02-08T04:59:35.967Z,1022.38
2017-02-08T05:00:44.918Z,1022.38
2017-02-08T05:01:54.269Z,1022.39
2017-02-08T05:03:03.215Z,1022.37
2017-02-08T05:04:12.162Z,1022.34
2017-02-08T05:05:21.110Z,1022.39
2017-02-08T05:06:30.056Z,1022.41
2017-02-08T05:07:39.411Z,1022.43
2017-02-08T05:08:48.356Z,1022.44
2017-02-08T05:09:57.312Z,1022.41
2017-02-08T05:11:06.263Z,1022.45
2017-02-08T05:12:15.212Z,1022.44
2017-02-08T05:13:24.158Z,1022.48
2017-02-08T05:14:33.105Z,1022.46
2017-02-08T05:15:42.051Z,1022.45
2017-02-08T05:16:51.005Z,1022.51
2017-02-08T05:17:59.953Z,1022.5
2017-02-08T05:19:08.992Z,1022.55
2017-02-08T05:20:18.025Z,1022.55
2017-02-08T05:21:26.969Z,1022.52
2017-02-08T05:22:35.919Z,1022.58
2017-02-08T05:23:44.866Z,1022.53
2017-02-08T05:24:53.815Z,1022.62
2017-02-08T05:26:03.171Z,1022.57
2017-02-08T05:27:12.113Z,1022.58
2017-02-08T05:28:21.061Z,1022.59
2017-02-08T05:29:30.004Z,1022.59
2017-02-08T05:30:38.948Z,1022.59
2017-02-08T05:31:47.894Z,1022.58
2017-02-08T05:32:56.920Z,1022.62
2017-02-08T05:34:05.868Z,1022.55
2017-02-08T05:35:14.810Z,1022.54
2017-02-08T05:36:23.758Z,1022.52
2017-02-08T05:37:32.707Z,1022.5
2017-02-08T05:38:41.651Z,1022.49
2017-02-08T05:39:50.596Z,1022.55
2017-02-08T05:40:59.541Z,1022.52
2017-02-08T05:42:08.583Z,1022.54
2017-02-08T05:43:17.561Z,1022.55
2017-02-08T05:44:26.505Z,1022.56
2017-02-08T05:45:35.448Z,1022.64
2017-02-08T05:46:44.481Z,1022.59
2017-02-08T05:47:53.430Z,1022.54
2017-02-08T05:49:02.373Z,1022.57
2017-02-08T05:50:11.321Z,1022.59
2017-02-08T05:51:20.264Z,1022.62
2017-02-08T05:52:29.308Z,1022.63
2017-02-08T05:53:38.254Z,1022.61
2017-02-08T05:54:47.200Z,1022.57
2017-02-08T05:55:56.152Z,1022.59
2017-02-08T05:57:05.098Z,1022.58
2017-02-08T05:58:14.046Z,1022.59
2017-02-08T05:59:22.990Z,1022.58
2017-02-08T06:00:31.939Z,1022.66
2017-02-08T06:01:41.291Z,1022.67
2017-02-08T06:02:50.242Z,1022.61
2017-02-08T06:03:59.216Z,1022.67
2017-02-08T06:05:08.160Z,1022.61
2017-02-08T06:06:17.110Z,1022.64
2017-02-08T06:07:26.145Z,1022.65
2017-02-08T06:08:35.089Z,1022.74
2017-02-08T06:09:44.034Z,1022.73
2017-02-08T06:10:52.985Z,1022.77
2017-02-08T06:12:01.931Z,1022.79
2017-02-08T06:13:10.882Z,1022.82
2017-02-08T06:14:19.831Z,1022.81
2017-02-08T06:15:28.777Z,1022.84
2017-02-08T06:16:37.730Z,1022.86
2017-02-08T06:17:46.679Z,1022.81
2017-02-08T06:18:55.626Z,1022.85
2017-02-08T06:20:04.569Z,1022.92
2017-02-08T06:21:13.518Z,1022.94
2017-02-08T06:22:22.465Z,1022.91
2017-02-08T06:23:31.409Z,1022.93
2017-02-08T06:24:40.359Z,1022.92
2017-02-08T06:25:49.393Z,1022.96
2017-02-08T06:26:58.337Z,1022.99
2017-02-08T06:28:07.283Z,1023.04
2017-02-08T06:29:16.230Z,1023.04
2017-02-08T06:30:25.180Z,1023.11
2017-02-08T06:31:36.280Z,1023.11
2017-02-08T06:32:45.227Z,1023.11
2017-02-08T06:33:54.581Z,1023.14
2017-02-08T06:35:03.554Z,1023.12
2017-02-08T06:36:12.905Z,1023.12
2017-02-08T06:37:21.849Z,1023.19
2017-02-08T06:38:30.798Z,1023.22
2017-02-08T06:39:40.593Z,1023.22
2017-02-08T06:40:49.946Z,1023.25
2017-02-08T06:41:58.976Z,1023.25
2017-02-08T06:43:07.922Z,1023.25
2017-02-08T06:44:16.873Z,1023.18
2017-02-08T06:45:26.229Z,1023.21
2017-02-08T06:46:35.263Z,1023.28
2017-02-08T06:47:44.210Z,1023.25
2017-02-08T06:48:53.156Z,1023.34
2017-02-08T06:50:02.107Z,1023.3
2017-02-08T06:51:11.052Z,1023.29
2017-02-08T06:52:19.997Z,1023.27
2017-02-08T06:53:28.952Z,1023.26
2017-02-08T06:54:37.897Z,1023.29
2017-02-08T06:55:46.847Z,1023.25
2017-02-08T06:56:55.789Z,1023.25
2017-02-08T06:58:04.736Z,1023.25
2017-02-08T06:59:13.683Z,1023.24
2017-02-08T07:00:23.041Z,1023.25
2017-02-08T07:01:31.988Z,1023.24
2017-02-08T07:02:40.932Z,1023.24
2017-02-08T07:03:49.878Z,1023.25
2017-02-08T07:04:58.827Z,1023.28
2017-02-08T07:06:07.775Z,1023.27
2017-02-08T07:07:16.722Z,1023.3
2017-02-08T07:08:25.674Z,1023.24
2017-02-08T07:09:34.620Z,1023.27
2017-02-08T07:10:43.565Z,1023.35
2017-02-08T07:11:52.513Z,1023.32
2017-02-08T07:13:01.544Z,1023.33
2017-02-08T07:14:10.577Z,1023.3
2017-02-08T07:15:19.522Z,1023.34
2017-02-08T07:16:28.466Z,1023.38
2017-02-08T07:17:37.408Z,1023.33
2017-02-08T07:18:46.359Z,1023.35
2017-02-08T07:19:55.337Z,1023.35
2017-02-08T07:21:04.285Z,1023.42
2017-02-08T07:22:13.227Z,1023.41
2017-02-08T07:23:22.177Z,1023.4
2017-02-08T07:24:31.124Z,1023.48
2017-02-08T07:25:40.153Z,1023.47
2017-02-08T07:26:49.104Z,1023.49
2017-02-08T07:27:58.054Z,1023.5
2017-02-08T07:29:07.002Z,1023.5
2017-02-08T07:30:15.952Z,1023.5
2017-02-08T07:31:25.320Z,1023.56
2017-02-08T07:32:34.299Z,1023.55
2017-02-08T07:33:43.251Z,1023.54
2017-02-08T07:34:52.200Z,1023.54
2017-02-08T07:36:01.159Z,1023.58
2017-02-08T07:37:10.114Z,1023.62
2017-02-08T07:38:19.060Z,1023.53
2017-02-08T07:39:28.097Z,1023.65
2017-02-08T07:40:37.135Z,1023.62
2017-02-08T07:41:46.176Z,1023.66
2017-02-08T07:42:55.530Z,1023.6
2017-02-08T07:44:04.480Z,1023.66
2017-02-08T07:45:13.519Z,1023.67
2017-02-08T07:46:22.467Z,1023.64
2017-02-08T07:47:31.819Z,1023.73
2017-02-08T07:48:40.769Z,1023.72
2017-02-08T07:49:49.719Z,1023.71
2017-02-08T07:50:58.669Z,1023.73
2017-02-08T07:52:07.615Z,1023.73
2017-02-08T07:53:16.561Z,1023.74
2017-02-08T07:54:25.508Z,1023.72
2017-02-08T07:55:34.462Z,1023.71
2017-02-08T07:56:43.413Z,1023.72
2017-02-08T07:57:52.365Z,1023.73
2017-02-08T07:59:01.310Z,1023.72
2017-02-08T08:00:10.253Z,1023.78
2017-02-08T08:01:19.198Z,1023.73
2017-02-08T08:02:28.151Z,1023.79
2017-02-08T08:03:37.099Z,1023.77
2017-02-08T08:04:46.048Z,1023.76
2017-02-08T08:05:54.992Z,1023.77
2017-02-08T08:07:03.945Z,1023.79
2017-02-08T08:08:12.891Z,1023.76
2017-02-08T08:09:21.848Z,1023.78
2017-02-08T08:10:30.798Z,1023.82
2017-02-08T08:11:39.747Z,1023.78
2017-02-08T08:12:48.694Z,1023.76
2017-02-08T08:13:58.047Z,1023.79
2017-02-08T08:15:06.993Z,1023.79
2017-02-08T08:16:15.942Z,1023.84
2017-02-08T08:17:24.899Z,1023.87
2017-02-08T08:18:33.845Z,1023.88
2017-02-08T08:19:43.199Z,1023.86
2017-02-08T08:20:52.149Z,1023.94
2017-02-08T08:22:01.497Z,1023.89
2017-02-08T08:23:10.530Z,1023.89
2017-02-08T08:24:19.483Z,1023.85
2017-02-08T08:25:28.436Z,1023.85
2017-02-08T08:26:37.382Z,1023.9
2017-02-08T08:27:46.891Z,1023.89
2017-02-08T08:28:56.225Z,1023.93
2017-02-08T08:30:05.925Z,1024.02
2017-02-08T08:31:15.376Z,1024
2017-02-08T08:32:24.324Z,1024
2017-02-08T08:33:33.269Z,1024.02
2017-02-08T08:34:42.211Z,1024.02
2017-02-08T08:35:51.337Z,1024.07
2017-02-08T08:37:00.294Z,1024.03
2017-02-08T08:38:09.450Z,1024.05
2017-02-08T08:39:18.605Z,1024.04
2017-02-08T08:40:27.555Z,1024.04
2017-02-08T08:41:36.809Z,1024.04
2017-02-08T08:42:45.752Z,1024.04
2017-02-08T08:43:54.698Z,1024.09
2017-02-08T08:45:03.650Z,1024.08
2017-02-08T08:46:12.593Z,1024.11
2017-02-08T08:47:21.626Z,1024.1
2017-02-08T08:48:30.982Z,1024.07
2017-02-08T08:49:39.973Z,1024.1
2017-02-08T08:50:48.922Z,1024.11
2017-02-08T08:51:57.996Z,1024.06
2017-02-08T08:53:07.163Z,1024.08
2017-02-08T08:54:16.441Z,1024.05
2017-02-08T08:55:25.387Z,1024.05
2017-02-08T08:56:34.335Z,1024.04
2017-02-08T08:57:43.283Z,1024.01
2017-02-08T08:58:52.231Z,1024.06
2017-02-08T09:00:02.455Z,1024.06
2017-02-08T09:01:17.921Z,1023.96
2017-02-08T09:02:33.902Z,1023.97
2017-02-08T09:03:52.566Z,1024.02
2017-02-08T09:05:01.513Z,1024.02
2017-02-08T09:06:10.463Z,1024.01
2017-02-08T09:07:19.410Z,1024.06
2017-02-08T09:08:28.359Z,1024.06
2017-02-08T09:09:37.300Z,1024.1
2017-02-08T09:10:46.544Z,1024.08
2017-02-08T09:11:55.492Z,1024.14
2017-02-08T09:13:04.470Z,1024.15
2017-02-08T09:14:13.543Z,1024.08
2017-02-08T09:15:22.943Z,1024.09
2017-02-08T09:16:32.209Z,1024.11
2017-02-08T09:17:41.164Z,1024.09
2017-02-08T09:18:50.110Z,1024.11
2017-02-08T09:19:59.053Z,1024.11
2017-02-08T09:21:07.998Z,1024.13
2017-02-08T09:22:16.946Z,1024.18
2017-02-08T09:23:25.888Z,1024.15
2017-02-08T09:24:35.247Z,1024.16
2017-02-08T09:25:44.193Z,1024.15
2017-02-08T09:26:53.138Z,1024.07
2017-02-08T09:28:02.095Z,1024.09
2017-02-08T09:29:11.052Z,1024.1
2017-02-08T09:30:19.996Z,1024.09
2017-02-08T09:31:28.943Z,1024.12
2017-02-08T09:32:37.886Z,1024.13
2017-02-08T09:33:46.837Z,1024.18
2017-02-08T09:34:55.816Z,1024.14
2017-02-08T09:36:05.166Z,1024.14
2017-02-08T09:37:14.197Z,1024.15
2017-02-08T09:38:23.152Z,1024.13
2017-02-08T09:39:32.179Z,1024.13
2017-02-08T09:40:41.500Z,1024.15
2017-02-08T09:41:50.776Z,1024.18
2017-02-08T09:42:59.743Z,1024.19
2017-02-08T09:44:08.983Z,1024.21
2017-02-08T09:45:17.933Z,1024.17
2017-02-08T09:46:26.880Z,1024.24
2017-02-08T09:47:35.864Z,1024.28
2017-02-08T09:48:44.813Z,1024.31
2017-02-08T09:49:53.758Z,1024.29
2017-02-08T09:51:02.710Z,1024.31
2017-02-08T09:52:11.665Z,1024.36
2017-02-08T09:53:20.608Z,1024.3
2017-02-08T09:54:29.553Z,1024.33
2017-02-08T09:55:38.531Z,1024.43
2017-02-08T09:56:48.842Z,1024.44
2017-02-08T09:57:58.899Z,1024.45
2017-02-08T09:59:10.089Z,1024.48
2017-02-08T10:00:19.039Z,1024.48
2017-02-08T10:01:27.987Z,1024.55
2017-02-08T10:02:36.934Z,1024.51
2017-02-08T10:03:46.359Z,1024.5
2017-02-08T10:04:55.308Z,1024.49
2017-02-08T10:06:04.817Z,1024.48
2017-02-08T10:07:13.768Z,1024.56
2017-02-08T10:08:22.900Z,1024.53
2017-02-08T10:09:31.850Z,1024.53
2017-02-08T10:10:40.799Z,1024.51
2017-02-08T10:11:49.743Z,1024.49
2017-02-08T10:12:59.615Z,1024.51
2017-02-08T10:14:13.464Z,1024.52
2017-02-08T10:15:22.748Z,1024.49
2017-02-08T10:16:32.002Z,1024.53
2017-02-08T10:17:40.945Z,1024.58
2017-02-08T10:18:49.894Z,1024.54
2017-02-08T10:19:58.841Z,1024.55
2017-02-08T10:21:07.790Z,1024.55
2017-02-08T10:22:16.739Z,1024.56
2017-02-08T10:23:25.685Z,1024.54
2017-02-08T10:24:34.718Z,1024.56
2017-02-08T10:25:43.665Z,1024.59
2017-02-08T10:26:52.613Z,1024.59
2017-02-08T10:28:01.559Z,1024.62
2017-02-08T10:29:10.511Z,1024.65
2017-02-08T10:30:19.458Z,1024.67
2017-02-08T10:31:28.406Z,1024.6
2017-02-08T10:32:37.349Z,1024.63
2017-02-08T10:33:46.299Z,1024.61
2017-02-08T10:34:55.251Z,1024.62
2017-02-08T10:36:04.202Z,1024.62
2017-02-08T10:37:13.233Z,1024.63
2017-02-08T10:38:22.182Z,1024.65
2017-02-08T10:39:31.129Z,1024.66
2017-02-08T10:40:40.079Z,1024.7
2017-02-08T10:41:49.028Z,1024.66
2017-02-08T10:42:57.971Z,1024.74
2017-02-08T10:44:06.915Z,1024.73
2017-02-08T10:45:15.860Z,1024.69
2017-02-08T10:46:24.808Z,1024.78
2017-02-08T10:47:33.756Z,1024.71
2017-02-08T10:48:42.707Z,1024.74
2017-02-08T10:49:51.656Z,1024.71
2017-02-08T10:51:00.600Z,1024.71
2017-02-08T10:52:09.634Z,1024.69
2017-02-08T10:53:18.584Z,1024.7
2017-02-08T10:54:27.848Z,1024.7
2017-02-08T10:55:37.918Z,1024.72
2017-02-08T10:56:47.670Z,1024.7
2017-02-08T10:57:56.618Z,1024.68
2017-02-08T10:59:05.565Z,1024.69
2017-02-08T11:00:14.607Z,1024.65
2017-02-08T11:01:23.551Z,1024.66
2017-02-08T11:02:32.494Z,1024.54
2017-02-08T11:03:41.436Z,1024.59
2017-02-08T11:04:51.151Z,1024.63
2017-02-08T11:06:00.311Z,1024.58
2017-02-08T11:07:09.460Z,1024.61
2017-02-08T11:08:18.414Z,1024.56
2017-02-08T11:09:28.617Z,1024.59
2017-02-08T11:10:38.238Z,1024.59
2017-02-08T11:11:47.189Z,1024.59
2017-02-08T11:12:56.140Z,1024.56
2017-02-08T11:14:05.097Z,1024.57
2017-02-08T11:15:14.218Z,1024.61
2017-02-08T11:16:23.170Z,1024.62
2017-02-08T11:17:32.115Z,1024.64
2017-02-08T11:18:41.455Z,1024.59
2017-02-08T11:19:50.405Z,1024.64
2017-02-08T11:20:59.351Z,1024.63
2017-02-08T11:22:08.425Z,1024.64
2017-02-08T11:23:18.121Z,1024.65
2017-02-08T11:24:27.068Z,1024.66
2017-02-08T11:25:36.107Z,1024.72
2017-02-08T11:26:45.460Z,1024.66
2017-02-08T11:27:54.408Z,1024.66
2017-02-08T11:29:04.308Z,1024.66
2017-02-08T11:30:13.256Z,1024.64
2017-02-08T11:31:22.538Z,1024.7
2017-02-08T11:32:32.472Z,1024.64
2017-02-08T11:33:41.419Z,1024.62
2017-02-08T11:34:50.381Z,1024.6
2017-02-08T11:35:59.749Z,1024.63
2017-02-08T11:37:08.697Z,1024.64
2017-02-08T11:38:17.649Z,1024.64
2017-02-08T11:39:26.593Z,1024.62
2017-02-08T11:40:35.536Z,1024.66
2017-02-08T11:41:44.488Z,1024.63
2017-02-08T11:42:53.549Z,1024.61
2017-02-08T11:44:02.582Z,1024.64
2017-02-08T11:45:11.542Z,1024.66
2017-02-08T11:46:20.496Z,1024.66
2017-02-08T11:47:29.442Z,1024.64
2017-02-08T11:48:38.382Z,1024.67
2017-02-08T11:49:47.333Z,1024.63
2017-02-08T11:50:56.736Z,1024.6
2017-02-08T11:52:05.683Z,1024.61
2017-02-08T11:53:14.627Z,1024.66
2017-02-08T11:54:23.660Z,1024.64
2017-02-08T11:55:32.605Z,1024.66
2017-02-08T11:56:41.550Z,1024.63
2017-02-08T11:57:50.496Z,1024.68
2017-02-08T11:58:59.446Z,1024.67
2017-02-08T12:00:08.392Z,1024.65
2017-02-08T12:01:17.424Z,1024.68
2017-02-08T12:02:26.373Z,1024.6
2017-02-08T12:03:35.731Z,1024.65
2017-02-08T12:04:44.678Z,1024.65
2017-02-08T12:05:53.794Z,1024.65
2017-02-08T12:07:02.747Z,1024.67
2017-02-08T12:08:11.780Z,1024.63
2017-02-08T12:09:20.727Z,1024.65
2017-02-08T12:10:29.677Z,1024.67
2017-02-08T12:11:38.622Z,1024.65
2017-02-08T12:12:47.565Z,1024.65
2017-02-08T12:13:56.513Z,1024.63
2017-02-08T12:15:05.460Z,1024.61
2017-02-08T12:16:14.404Z,1024.61
2017-02-08T12:17:23.355Z,1024.66
2017-02-08T12:18:32.301Z,1024.63
2017-02-08T12:19:41.250Z,1024.64
2017-02-08T12:20:50.605Z,1024.67
2017-02-08T12:21:59.557Z,1024.61
2017-02-08T12:23:08.506Z,1024.63
2017-02-08T12:24:17.453Z,1024.65
2017-02-08T12:25:26.400Z,1024.63
2017-02-08T12:26:35.351Z,1024.61
2017-02-08T12:27:44.303Z,1024.64
2017-02-08T12:28:53.249Z,1024.64
2017-02-08T12:30:02.192Z,1024.68
2017-02-08T12:31:11.180Z,1024.63
2017-02-08T12:32:20.136Z,1024.61
2017-02-08T12:33:29.083Z,1024.64
2017-02-08T12:34:38.031Z,1024.62
2017-02-08T12:35:46.977Z,1024.64
2017-02-08T12:36:55.919Z,1024.64
2017-02-08T12:38:04.868Z,1024.66
2017-02-08T12:39:13.815Z,1024.63
2017-02-08T12:40:22.767Z,1024.66
2017-02-08T12:41:32.127Z,1024.62
2017-02-08T12:42:41.108Z,1024.63
2017-02-08T12:43:50.053Z,1024.6
2017-02-08T12:44:59.000Z,1024.61
2017-02-08T12:46:07.947Z,1024.6
2017-02-08T12:47:16.983Z,1024.63
2017-02-08T12:48:25.930Z,1024.66
2017-02-08T12:49:34.877Z,1024.63
2017-02-08T12:50:43.823Z,1024.64
2017-02-08T12:51:52.774Z,1024.65
2017-02-08T12:53:01.725Z,1024.72
2017-02-08T12:54:11.081Z,1024.68
2017-02-08T12:55:20.433Z,1024.66
2017-02-08T12:56:29.380Z,1024.69
2017-02-08T12:57:38.330Z,1024.69
2017-02-08T12:58:47.277Z,1024.68
2017-02-08T12:59:56.229Z,1024.7
2017-02-08T13:01:05.179Z,1024.64
2017-02-08T13:02:14.127Z,1024.75
2017-02-08T13:03:23.081Z,1024.68
2017-02-08T13:04:32.436Z,1024.65
2017-02-08T13:05:41.387Z,1024.64
2017-02-08T13:06:50.334Z,1024.66
2017-02-08T13:07:59.284Z,1024.71
2017-02-08T13:09:08.236Z,1024.7
2017-02-08T13:10:17.182Z,1024.73
2017-02-08T13:11:26.129Z,1024.7
2017-02-08T13:12:35.162Z,1024.72
2017-02-08T13:13:44.112Z,1024.73
2017-02-08T13:14:53.057Z,1024.77
2017-02-08T13:16:02.008Z,1024.73
2017-02-08T13:17:10.957Z,1024.76
2017-02-08T13:18:19.909Z,1024.81
2017-02-08T13:19:29.673Z,1024.77
2017-02-08T13:20:38.617Z,1024.78
2017-02-08T13:21:47.566Z,1024.8
2017-02-08T13:22:56.521Z,1024.81
2017-02-08T13:24:05.469Z,1024.82
2017-02-08T13:25:14.414Z,1024.82
2017-02-08T13:26:23.367Z,1024.8
2017-02-08T13:27:32.321Z,1024.76
2017-02-08T13:28:41.267Z,1024.72
2017-02-08T13:29:50.303Z,1024.74
2017-02-08T13:30:59.336Z,1024.74
2017-02-08T13:32:08.290Z,1024.77
2017-02-08T13:33:17.648Z,1024.8
2017-02-08T13:34:26.597Z,1024.78
2017-02-08T13:35:35.543Z,1024.75
2017-02-08T13:36:44.496Z,1024.75
2017-02-08T13:37:53.443Z,1024.72
2017-02-08T13:39:02.388Z,1024.73
2017-02-08T13:40:11.753Z,1024.77
2017-02-08T13:41:20.699Z,1024.76
2017-02-08T13:42:29.646Z,1024.75
2017-02-08T13:43:38.590Z,1024.81
2017-02-08T13:44:47.625Z,1024.8
2017-02-08T13:45:56.656Z,1024.81
2017-02-08T13:47:05.598Z,1024.79
2017-02-08T13:48:14.547Z,1024.81
2017-02-08T13:49:23.495Z,1024.81
2017-02-08T13:50:32.851Z,1024.81
2017-02-08T13:51:41.801Z,1024.83
2017-02-08T13:52:50.751Z,1024.83
2017-02-08T13:53:59.698Z,1024.88
2017-02-08T13:55:08.645Z,1024.81
2017-02-08T13:56:17.589Z,1024.8
2017-02-08T13:57:26.536Z,1024.8
2017-02-08T13:58:35.485Z,1024.79
2017-02-08T13:59:44.437Z,1024.79